Station: STRATHALBYN AWS

  Atmospheric Gas Attenuation - ITU Rec 676-11   --------------- db/100km ---------------
Date Time Temp RH % AH g/m3 Dew Point Wind Direction Speed kph Gust kph Barometer mB Rainfall Since 9am 24GHz 47GHz 76GHz 122GHz 134GHz 241GHz
27 13:40 14.5 59 7.34 6.6 9 11 1025.6 0 16.9 24.2 35.1 91.6 82.3 282.0
27 13:30 14.3 57 7 5.9 9 15 1025.7 0 16.2 23.7 33.9 88.4 78.2 267.7
27 13:20 14.1 58 7.04 6 11 13 1025.7 0 16.2 23.8 34.1 89.1 78.9 270.2
27 13:10 14.1 58 7.04 6 15 15 1025.8 0 16.2 23.8 34.1 89.1 78.9 270.2
27 13:00 14.3 61 7.49 6.9 9 15 1025.9 0 17.2 24.5 35.7 93.4 84.4 289.4
27 12:50 13.7 60 7.11 6.1 9 11 1026.1 0 16.4 24.0 34.6 90.3 80.2 274.7
27 12:40 13.6 60 7.06 6 11 13 1026.3 0 16.3 24.0 34.4 89.9 79.7 272.9
27 12:30 13.7 61 7.22 6.3 15 20 1026.3 0 16.6 24.2 35.0 91.4 81.6 279.6
27 12:20 13.7 62 7.34 6.6 15 19 1026.4 0 16.9 24.4 35.5 92.6 83.2 285.0
27 12:10 13.5 63 7.37 6.6 13 15 1026.4 0 17.0 24.5 35.7 93.2 83.8 287.1
27 12:00 13.8 62 7.39 6.7 11 17 1026.5 0 17.0 24.5 35.6 93.1 83.7 286.9
27 11:50 14 60 7.24 6.4 9 13 1026.6 0 16.7 24.2 34.9 91.3 81.6 279.5
27 11:40 14.1 61 7.4 6.7 7 7 1026.7 0 17.0 24.4 35.5 92.8 83.5 286.3
27 11:30 13.6 61 7.18 6.2 2 9 1026.8 0 16.6 24.2 34.9 91.2 81.3 278.3
27 11:20 13.2 61 7 5.9 9 11 1026.9 0 16.2 24.0 34.4 89.8 79.4 271.7
27 11:10 13.3 62 7.16 6.2 9 11 1027.1 0 16.5 24.3 35.0 91.3 81.4 278.5
27 11:00 13.2 61 7 5.9 9 11 1027.3 0 16.2 24.0 34.4 89.8 79.4 271.8
27 10:50 13.3 62 7.16 6.2 7 9 1027.4 0 16.5 24.3 35.0 91.3 81.4 278.6
27 10:40 12.9 62 6.99 5.8 0 0 1027.5 0 16.2 24.1 34.5 90.1 79.6 272.4
27 10:30 12.6 62 6.86 5.5 9 13 1027.6 0 15.9 24.0 34.1 89.1 78.3 267.7
27 10:20 12.7 64 7.13 6.1 6 7 1027.6 0 16.5 24.4 35.1 91.7 81.6 279.4
27 10:10 13.1 67 7.65 7.1 9 13 1027.6 0 17.6 25.1 37.0 96.7 87.9 301.5
27 10:00 12.5 68 7.48 6.8 11 17 1027.6 0 17.2 25.0 36.6 95.6 86.4 296.0
27 09:50 12.2 70 7.55 6.9 13 13 1027.7 0 17.4 25.2 37.0 96.8 87.6 300.4
27 09:40 13.1 70 7.99 7.8 17 20 1027.7 0 18.3 25.7 38.3 100.3 92.4 317.1
27 09:30 12.5 68 7.48 6.8 13 20 1027.7 0 17.2 25.0 36.6 95.7 86.4 296.0
27 09:20 13 67 7.6 7 7 9 1027.7 0 17.5 25.1 36.8 96.3 87.4 299.6
27 09:10 11.8 68 7.16 6.1 7 7 1027.7 0 16.6 24.7 35.6 93.1 83.0 284.0
27 09:00 11.8 69 7.26 6.3 7 13 1027.7 0 16.8 24.8 36.0 94.2 84.3 288.6
27 08:50 11.7 67 7.01 5.8 6 7 1027.7 0 16.3 24.5 35.1 91.7 81.1 277.5
27 08:40 12.1 67 7.19 6.2 7 9 1027.6 0 16.6 24.6 35.6 93.1 83.0 284.3
27 08:30 11.9 70 7.41 6.6 9 15 1027.6 0 17.1 25.1 36.6 95.6 86.1 295.0
27 08:20 11.4 72 7.39 6.5 11 11 1027.5 0 17.1 25.2 36.7 96.0 86.4 296.0
27 08:10 11.4 75 7.7 7.1 13 15 1027.6 0 17.8 25.7 38.0 99.3 90.5 310.4
27 08:00 10.7 77 7.56 6.8 11 17 1027.6 0 17.5 25.6 37.7 98.7 89.5 306.6
27 07:50 10.6 80 7.81 7.3 11 13 1027.5 0 18.0 26.1 38.8 101.6 92.9 318.7
27 07:40 10.3 82 7.85 7.4 9 11 1027.4 0 18.1 26.2 39.1 102.4 93.8 321.8
27 07:30 9.6 84 7.7 7 6 11 1027.3 0 17.8 26.2 38.8 101.6 92.6 317.5
27 07:20 9.5 89 8.1 7.8 0 0 1027.2 0 18.7 26.9 40.6 106.2 98.2 337.2
27 07:10 8.2 88 7.37 6.3 7 7 1027.2 0 17.2 26.0 38.1 99.7 89.7 307.2
27 07:00 7.5 90 7.21 6 2 7 1027 0 16.9 26.0 37.8 98.8 88.3 302.2
27 06:50 7.3 91 7.19 5.9 0 0 1026.8 0 16.9 26.0 37.8 98.8 88.3 301.9
27 06:40 7 91 7.05 5.6 0 0 1026.5 0 16.6 25.8 37.3 97.6 86.6 296.2
27 06:30 6.6 91 6.87 5.2 9 11 1026.3 0 16.2 25.6 36.8 96.1 84.6 289.0
27 06:20 6.2 87 6.4 4.2 9 11 1026.1 0 15.2 24.9 35.0 91.3 78.6 267.8
27 06:10 6 86 6.25 3.8 9 11 1025.9 0 14.9 24.7 34.5 89.9 76.7 261.3
27 06:00 6.6 86 6.5 4.4 11 13 1025.8 0 15.4 25.0 35.2 91.9 79.5 271.2
27 05:50 6.8 85 6.5 4.5 11 13 1025.8 0 15.4 24.9 35.1 91.7 79.3 270.5
27 05:40 7.2 85 6.68 4.9 11 13 1025.6 0 15.8 25.1 35.7 93.2 81.3 277.6
27 05:30 7.8 84 6.86 5.3 13 15 1025.5 0 16.1 25.2 36.1 94.4 83.1 283.9
27 05:10 8.2 85 7.12 5.8 13 13 1025.2 0 16.7 25.5 37.0 96.8 86.2 294.7
27 04:40 8.2 87 7.29 6.2 9 11 1024.9 0 17.0 25.8 37.7 98.6 88.5 302.8
27 04:30 7.9 87 7.15 5.9 0 0 1024.8 0 16.7 25.7 37.3 97.4 86.9 297.2
27 04:20 7.8 87 7.1 5.8 0 0 1024.7 0 16.6 25.6 37.1 97.0 86.3 295.2
27 04:10 7.6 86 6.93 5.4 6 7 1024.7 0 16.3 25.4 36.5 95.4 84.2 287.8
27 04:00 7.5 86 6.89 5.3 0 0 1024.5 0 16.2 25.3 36.4 95.0 83.8 286.2
27 03:50 7.4 86 6.84 5.2 0 0 1024.4 0 16.1 25.3 36.2 94.6 83.2 284.2
27 03:40 7.4 86 6.84 5.2 4 6 1024.3 0 16.1 25.3 36.2 94.6 83.2 284.1
27 03:30 7.3 86 6.8 5.1 6 7 1024.3 0 16.0 25.2 36.1 94.3 82.7 282.6
27 03:20 7.2 86 6.75 5 0 0 1024.2 0 15.9 25.2 35.9 93.8 82.2 280.6
27 03:10 7.1 86 6.71 4.9 0 0 1024.1 0 15.8 25.1 35.8 93.5 81.7 279.0
27 03:00 7 86 6.67 4.8 0 0 1024.1 0 15.7 25.1 35.7 93.2 81.3 277.4
27 02:50 6.9 86 6.62 4.7 0 0 1024.1 0 15.6 25.0 35.5 92.7 80.7 275.4
27 02:40 6.5 86 6.45 4.3 2 4 1024.2 0 15.3 24.9 35.0 91.3 78.8 268.8
27 02:30 6.3 86 6.37 4.1 9 11 1024.1 0 15.1 24.8 34.7 90.7 77.9 265.6
27 02:20 6.3 86 6.37 4.1 11 11 1024.1 0 15.1 24.8 34.7 90.7 77.9 265.6
27 02:10 6 85 6.17 3.7 9 9 1024.1 0 14.7 24.5 34.0 88.8 75.5 257.2
27 02:00 6.1 84 6.14 3.6 7 9 1024.2 0 14.6 24.5 33.9 88.4 75.0 255.4
27 01:50 6.7 84 6.39 4.2 7 7 1024.3 0 15.2 24.7 34.7 90.5 77.8 265.3
27 01:40 7.2 84 6.6 4.7 9 9 1024.3 0 15.6 24.9 35.3 92.2 80.1 273.5
27 01:30 7.6 84 6.77 5.1 7 9 1024.3 0 15.9 25.1 35.8 93.6 82.0 280.1
27 01:20 7.9 85 6.98 5.5 7 7 1024.4 0 16.4 25.4 36.5 95.5 84.5 289.0
27 01:10 7.8 85 6.94 5.4 0 0 1024.4 0 16.3 25.3 36.4 95.2 84.1 287.5
27 01:00 7.5 85 6.81 5.1 0 0 1024.4 0 16.0 25.2 36.0 94.1 82.7 282.4
27 00:50 7.3 84 6.64 4.8 0 0 1024.6 0 15.7 25.0 35.4 92.5 80.6 275.1
27 00:40 7.3 84 6.64 4.8 4 6 1024.6 0 15.7 25.0 35.4 92.5 80.6 275.1
27 00:30 7.4 83 6.6 4.7 6 7 1024.7 0 15.6 24.9 35.2 92.0 80.0 272.9
27 00:20 7.7 83 6.73 5 6 7 1024.7 0 15.8 25.0 35.6 93.0 81.4 278.0
27 00:10 7.9 83 6.82 5.2 9 9 1024.6 0 16.0 25.1 35.9 93.8 82.4 281.5
27 00:00 8 83 6.86 5.3 7 9 1024.7 0 16.1 25.1 36.0 94.1 82.8 283.0
26 23:50 8.1 83 6.91 5.4 7 7 1024.7 0 16.2 25.2 36.2 94.5 83.4 285.0
26 23:40 8.1 84 6.99 5.6 9 9 1024.7 0 16.4 25.3 36.5 95.4 84.5 288.8
26 23:30 8.1 84 6.99 5.6 7 11 1024.8 0 16.4 25.3 36.5 95.4 84.5 288.8
26 23:20 8.1 83 6.91 5.4 9 11 1024.9 0 16.2 25.2 36.2 94.6 83.4 285.1
26 23:10 8.5 82 7 5.6 11 11 1024.8 0 16.4 25.2 36.4 95.0 84.2 287.8
26 23:00 8.4 82 6.96 5.5 11 15 1024.7 0 16.3 25.2 36.2 94.7 83.7 286.3
26 22:50 8 82 6.78 5.1 13 13 1024.7 0 15.9 25.0 35.7 93.2 81.8 279.2
26 22:40 7.8 82 6.7 4.9 11 13 1024.6 0 15.8 24.9 35.4 92.6 80.9 276.2
26 22:30 7.9 82 6.74 5 9 11 1024.6 0 15.9 25.0 35.6 92.9 81.3 277.7
26 22:20 7.8 82 6.7 4.9 11 11 1024.6 0 15.8 24.9 35.4 92.6 80.9 276.2
26 22:10 8 82 6.78 5.1 7 7 1024.7 0 15.9 25.0 35.7 93.2 81.8 279.2
26 22:00 8.2 82 6.87 5.3 6 7 1024.7 0 16.1 25.1 36.0 94.0 82.8 282.8
26 21:50 8.3 81 6.83 5.2 6 7 1024.7 0 16.0 25.0 35.8 93.4 82.1 280.5
26 21:40 8.8 80 6.97 5.5 11 11 1024.7 0 16.3 25.1 36.1 94.3 83.5 285.3
26 21:30 8.7 80 6.92 5.4 11 13 1024.7 0 16.2 25.0 35.9 93.9 82.9 283.3
26 21:20 8.5 80 6.83 5.3 11 13 1024.7 0 16.0 25.0 35.7 93.2 81.9 279.8
26 21:10 8.4 80 6.79 5.2 11 11 1024.7 0 15.9 24.9 35.6 92.9 81.5 278.3
26 21:00 8.1 79 6.58 4.7 9 11 1024.6 0 15.5 24.7 34.8 90.9 79.0 269.5
26 20:50 8.2 79 6.62 4.8 9 11 1024.6 0 15.6 24.7 34.9 91.3 79.4 271.0
26 20:40 8.2 78 6.53 4.6 11 13 1024.5 0 15.4 24.5 34.6 90.3 78.2 266.8

Last Refresh: 27-Sep-2020 13:55:15

Most of the information presented on this site is sourced from the Bureau of Meteorology.  Copyright in all material sourced from the Bureau of Meteorology resides with the Commonwealth of Australia.